Time;durP1;ratioP1;P1;durP2;ratioP2;P2;SDS_P1;SDS_P2;PMS_P1;PMS_P2;Temp;Humidity;BMP_temperature;BMP_pressure;BME280_temperature;BME280_humidity;BME280_pressure;Samples;Min_cycle;Max_cycle;Signal;HPM_P1;HPM_P2
2023/07/27 00:02:18;;;;;;;4.23;3.80;;;14.30;70.50;;;;;;6207392;28;20247;-79
2023/07/27 00:05:22;;;;;;;3.70;3.60;;;14.30;70.70;;;;;;6244619;28;20241;-79
2023/07/27 00:08:25;;;;;;;3.50;3.40;;;14.30;70.80;;;;;;6226842;28;20301;-83
2023/07/27 00:11:29;;;;;;;3.60;3.50;;;14.20;71.20;;;;;;6221007;28;20235;-80
2023/07/27 00:14:33;;;;;;;3.90;3.70;;;14.20;71.20;;;;;;6217100;28;20839;-83
2023/07/27 00:17:36;;;;;;;4.20;4.00;;;14.20;71.10;;;;;;6220586;28;20235;-80
2023/07/27 00:20:39;;;;;;;3.77;3.67;;;14.10;71.20;;;;;;6228413;28;20306;-82
2023/07/27 00:23:46;;;;;;;3.37;3.17;;;14.10;71.30;;;;;;6213182;28;20271;-80
2023/07/27 00:26:50;;;;;;;3.70;3.50;;;14.00;71.40;;;;;;6234128;28;20254;-81
2023/07/27 00:29:53;;;;;;;3.37;3.27;;;13.90;71.70;;;;;;6235442;28;20247;-81
2023/07/27 00:32:57;;;;;;;3.80;3.60;;;13.90;71.60;;;;;;6226701;28;20235;-82
2023/07/27 00:36:00;;;;;;;3.70;3.50;;;13.90;71.80;;;;;;6227686;28;20258;-81
2023/07/27 00:39:04;;;;;;;3.93;3.80;;;13.90;71.80;;;;;;6221741;28;20254;-80
2023/07/27 00:42:08;;;;;;;3.97;3.77;;;13.80;72.20;;;;;;6220966;28;20263;-81
2023/07/27 00:45:12;;;;;;;3.90;3.80;;;13.70;72.50;;;;;;6234620;28;20278;-81
2023/07/27 00:48:16;;;;;;;3.80;3.70;;;13.70;72.60;;;;;;6229278;28;20234;-81
2023/07/27 00:51:19;;;;;;;4.13;3.83;;;13.60;72.90;;;;;;6227730;28;20239;-80
2023/07/27 00:54:23;;;;;;;3.53;3.43;;;13.60;73.00;;;;;;6226287;28;20727;-80
2023/07/27 00:57:28;;;;;;;3.80;3.70;;;13.60;72.90;;;;;;6220352;28;20378;-80
2023/07/27 01:00:32;;;;;;;3.50;3.50;;;13.60;73.00;;;;;;6235186;28;20597;-80
2023/07/27 01:03:35;;;;;;;3.67;3.57;;;13.50;73.20;;;;;;6217129;28;20955;-81
2023/07/27 01:06:39;;;;;;;3.90;3.80;;;13.50;73.20;;;;;;6233081;28;20254;-81
2023/07/27 01:09:42;;;;;;;4.03;3.93;;;13.50;73.50;;;;;;6229091;28;20242;-80
2023/07/27 01:12:50;;;;;;;4.20;4.10;;;13.50;73.70;;;;;;6238957;28;20243;-80
2023/07/27 01:15:59;;;;;;;4.57;4.47;;;13.30;73.90;;;;;;6219402;28;20235;-81
2023/07/27 01:19:14;;;;;;;4.00;3.90;;;13.30;74.00;;;;;;6224134;28;20738;-80
2023/07/27 01:22:43;;;;;;;3.87;3.77;;;13.30;74.10;;;;;;6226646;28;20374;-82
2023/07/27 01:26:04;;;;;;;4.33;4.23;;;13.30;74.30;;;;;;6228440;28;20234;-80
2023/07/27 01:29:20;;;;;;;4.37;4.00;;;13.30;74.40;;;;;;6218562;28;20624;-77
2023/07/27 01:32:28;;;;;;;4.30;4.20;;;13.20;74.70;;;;;;6237962;28;20239;-78
2023/07/27 01:35:36;;;;;;;4.13;3.97;;;13.30;74.40;;;;;;6225255;28;20803;-80
2023/07/27 01:38:44;;;;;;;4.47;4.37;;;13.20;74.60;;;;;;6228077;28;21489;-82
2023/07/27 01:41:49;;;;;;;4.13;3.93;;;13.10;74.80;;;;;;6231536;28;20234;-78
2023/07/27 01:44:53;;;;;;;4.80;4.50;;;13.10;74.90;;;;;;6225148;28;20433;-79
2023/07/27 01:47:59;;;;;;;4.47;4.37;;;13.10;75.00;;;;;;6229781;28;20917;-79
2023/07/27 01:51:03;;;;;;;4.67;4.27;;;13.10;75.00;;;;;;6227414;28;20240;-80
2023/07/27 01:54:08;;;;;;;4.37;4.27;;;13.10;75.00;;;;;;6232294;28;20242;-79
2023/07/27 01:57:12;;;;;;;4.50;4.40;;;13.10;75.20;;;;;;6225051;28;20314;-81
2023/07/27 02:00:17;;;;;;;4.40;4.30;;;13.10;75.10;;;;;;6231086;28;20278;-80
2023/07/27 02:03:23;;;;;;;4.20;4.10;;;13.10;75.50;;;;;;6232104;28;20246;-80
2023/07/27 02:06:26;;;;;;;4.00;3.80;;;13.10;75.30;;;;;;6230676;28;20237;-78
2023/07/27 02:09:29;;;;;;;3.73;3.63;;;13.10;75.20;;;;;;6229045;28;20235;-79
2023/07/27 02:12:41;;;;;;;3.97;3.87;;;13.00;75.10;;;;;;6217531;28;20305;-82
2023/07/27 02:15:52;;;;;;;3.90;3.80;;;13.00;75.10;;;;;;6225688;28;20645;-81
2023/07/27 02:18:59;;;;;;;4.00;3.90;;;13.00;75.10;;;;;;6232899;28;20393;-80
2023/07/27 02:22:04;;;;;;;4.90;4.50;;;13.00;75.20;;;;;;6217767;28;20235;-82
2023/07/27 02:25:08;;;;;;;4.30;4.10;;;12.90;75.50;;;;;;6216629;28;20242;-80
2023/07/27 02:28:13;;;;;;;4.73;4.63;;;12.90;75.50;;;;;;6230717;28;20235;-79
2023/07/27 02:31:16;;;;;;;5.10;4.97;;;12.90;75.80;;;;;;6223181;28;20239;-81
2023/07/27 02:34:21;;;;;;;5.10;4.90;;;12.90;75.80;;;;;;6234740;28;20237;-82
2023/07/27 02:37:24;;;;;;;4.90;4.70;;;12.90;75.80;;;;;;6229147;28;20876;-79
2023/07/27 02:40:27;;;;;;;5.03;4.90;;;12.80;75.90;;;;;;6231146;28;20760;-80
2023/07/27 02:43:30;;;;;;;5.30;5.10;;;12.70;76.10;;;;;;6220731;28;20334;-81
2023/07/27 02:46:34;;;;;;;5.40;5.20;;;12.70;76.10;;;;;;6215203;28;20301;-80
2023/07/27 02:49:39;;;;;;;5.20;5.00;;;12.60;76.10;;;;;;6223355;28;20238;-80
2023/07/27 02:52:44;;;;;;;5.87;5.67;;;12.50;76.10;;;;;;6238749;28;20242;-80
2023/07/27 02:55:58;;;;;;;5.93;5.53;;;12.50;76.50;;;;;;6231174;28;20338;-78
2023/07/27 02:59:01;;;;;;;5.17;4.90;;;12.50;76.80;;;;;;6217700;28;20244;-79
2023/07/27 03:02:05;;;;;;;6.23;5.83;;;12.50;76.80;;;;;;6221373;28;20235;-77
2023/07/27 03:05:10;;;;;;;5.87;5.67;;;12.40;77.00;;;;;;6221706;28;20746;-80
2023/07/27 03:08:13;;;;;;;5.57;5.37;;;12.40;77.10;;;;;;6222354;28;20246;-80
2023/07/27 03:11:16;;;;;;;6.63;6.33;;;12.30;77.10;;;;;;6222556;28;20275;-79
2023/07/27 03:14:19;;;;;;;6.03;5.83;;;12.30;77.20;;;;;;6222018;28;20230;-79
2023/07/27 03:17:23;;;;;;;5.30;5.10;;;12.40;77.10;;;;;;6232026;28;20730;-81
2023/07/27 03:20:27;;;;;;;6.00;5.80;;;12.40;77.00;;;;;;6237368;28;20598;-81
2023/07/27 03:23:30;;;;;;;5.30;5.10;;;12.30;77.00;;;;;;6223034;28;20235;-80
2023/07/27 03:26:34;;;;;;;5.87;5.47;;;12.30;77.10;;;;;;6210169;28;20251;-80
2023/07/27 03:29:37;;;;;;;6.30;5.70;;;12.30;77.00;;;;;;6224981;28;20893;-77
2023/07/27 03:32:40;;;;;;;6.73;6.37;;;12.20;77.30;;;;;;6221143;28;20274;-81
2023/07/27 03:35:45;;;;;;;6.73;6.43;;;12.20;77.40;;;;;;6219585;28;20234;-78
2023/07/27 03:38:49;;;;;;;6.83;6.43;;;12.20;77.40;;;;;;6217651;28;20243;-79
2023/07/27 03:41:53;;;;;;;7.47;6.97;;;12.20;77.30;;;;;;6219143;28;20243;-80
2023/07/27 03:44:56;;;;;;;5.83;5.53;;;12.20;77.30;;;;;;6222112;28;20778;-81
2023/07/27 03:47:59;;;;;;;7.50;6.90;;;12.20;77.20;;;;;;6207878;28;20515;-79
2023/07/27 03:51:04;;;;;;;6.27;6.07;;;12.10;77.40;;;;;;6224390;28;20755;-79
2023/07/27 03:54:07;;;;;;;6.80;6.50;;;12.10;77.40;;;;;;6223703;28;20234;-79
2023/07/27 03:57:10;;;;;;;6.17;5.97;;;12.10;77.50;;;;;;6216983;28;20293;-80
2023/07/27 04:00:14;;;;;;;7.13;6.67;;;12.10;77.50;;;;;;6218056;28;20239;-80
2023/07/27 04:03:18;;;;;;;6.50;6.20;;;12.10;77.40;;;;;;6223306;28;20740;-79
2023/07/27 04:06:22;;;;;;;7.40;7.10;;;12.20;77.30;;;;;;6223430;28;20296;-78
2023/07/27 04:09:25;;;;;;;6.73;6.43;;;12.20;77.10;;;;;;6219643;28;20301;-78
2023/07/27 04:12:29;;;;;;;6.73;6.33;;;12.20;77.00;;;;;;6212794;28;20231;-79
2023/07/27 04:15:32;;;;;;;6.97;6.67;;;12.20;76.90;;;;;;6213831;28;20302;-78
2023/07/27 04:18:35;;;;;;;7.40;7.10;;;12.30;76.80;;;;;;6222817;28;20239;-78
2023/07/27 04:21:40;;;;;;;7.70;7.20;;;12.20;76.90;;;;;;6228713;28;20314;-81
2023/07/27 04:24:45;;;;;;;7.70;7.20;;;12.20;77.00;;;;;;6229220;28;20876;-77
2023/07/27 04:27:50;;;;;;;7.23;6.83;;;12.20;76.80;;;;;;6224045;28;20247;-79
2023/07/27 04:30:53;;;;;;;7.13;6.70;;;12.30;76.80;;;;;;6220869;28;20740;-80
2023/07/27 04:33:56;;;;;;;6.80;6.17;;;12.30;76.70;;;;;;6219031;28;20251;-80
2023/07/27 04:37:01;;;;;;;7.53;7.13;;;12.50;76.60;;;;;;6224485;28;20234;-79
2023/07/27 04:40:06;;;;;;;8.10;7.20;;;12.50;76.50;;;;;;6234508;28;20234;-78
2023/07/27 04:43:09;;;;;;;7.73;7.00;;;12.50;76.20;;;;;;6219618;28;20654;-80
2023/07/27 04:46:12;;;;;;;7.90;7.40;;;12.50;76.10;;;;;;6228709;28;20239;-79
2023/07/27 04:49:15;;;;;;;7.07;6.67;;;12.50;76.30;;;;;;6231304;28;20255;-80
2023/07/27 04:52:20;;;;;;;6.73;6.43;;;12.50;76.30;;;;;;6259490;28;20301;-79
2023/07/27 04:55:25;;;;;;;7.47;7.07;;;12.70;76.20;;;;;;6255466;28;20238;-78
2023/07/27 04:58:28;;;;;;;7.43;6.97;;;12.80;75.80;;;;;;6255122;28;20327;-77
2023/07/27 05:01:31;;;;;;;7.17;6.80;;;12.90;75.60;;;;;;6260904;28;21254;-80
2023/07/27 05:04:34;;;;;;;7.37;6.97;;;13.10;75.30;;;;;;6256403;28;20235;-77
2023/07/27 05:07:39;;;;;;;6.37;5.97;;;13.20;75.00;;;;;;6255034;28;20246;-78
2023/07/27 05:10:42;;;;;;;7.50;7.03;;;13.50;75.00;;;;;;6259366;28;20230;-78
2023/07/27 05:13:45;;;;;;;7.07;6.67;;;13.70;73.90;;;;;;6258557;28;20243;-79
2023/07/27 05:16:48;;;;;;;7.23;6.90;;;13.70;72.80;;;;;;6251506;28;20235;-81
2023/07/27 05:19:53;;;;;;;6.87;6.30;;;13.70;72.80;;;;;;6260676;28;20219;-80
2023/07/27 05:22:57;;;;;;;6.53;6.13;;;13.80;72.70;;;;;;6257645;28;20234;-78
2023/07/27 05:26:00;;;;;;;6.60;6.23;;;14.00;72.40;;;;;;6264826;28;20230;-78
2023/07/27 05:29:04;;;;;;;5.53;5.33;;;14.30;71.60;;;;;;6251652;28;20227;-80
2023/07/27 05:32:08;;;;;;;6.23;5.83;;;14.50;71.30;;;;;;6256128;28;20231;-80
2023/07/27 05:35:11;;;;;;;5.47;5.33;;;14.70;70.10;;;;;;6259088;28;20414;-76
2023/07/27 05:38:15;;;;;;;6.40;5.90;;;14.60;70.00;;;;;;6263093;28;20231;-77
2023/07/27 05:41:19;;;;;;;5.60;5.40;;;14.70;70.40;;;;;;6258768;28;20227;-81
2023/07/27 05:44:22;;;;;;;5.90;5.50;;;15.00;69.60;;;;;;6262606;28;20229;-81
2023/07/27 05:47:25;;;;;;;5.57;5.27;;;15.20;68.60;;;;;;6267830;28;20231;-79
2023/07/27 05:50:28;;;;;;;5.63;5.33;;;15.20;68.20;;;;;;6255813;28;20237;-78
2023/07/27 05:53:32;;;;;;;5.13;4.80;;;15.40;67.80;;;;;;6252763;28;20219;-79
2023/07/27 05:56:36;;;;;;;5.70;5.30;;;15.50;67.50;;;;;;6256527;28;20253;-81
2023/07/27 05:59:39;;;;;;;5.20;4.90;;;16.00;66.60;;;;;;6222905;28;20239;-81
2023/07/27 06:02:54;;;;;;;4.83;4.53;;;16.40;65.20;;;;;;6227828;28;20293;-80
2023/07/27 06:05:57;;;;;;;4.93;4.73;;;16.70;64.90;;;;;;6223568;28;20242;-79
2023/07/27 06:09:02;;;;;;;4.90;4.70;;;17.10;64.10;;;;;;6221994;28;20241;-80
2023/07/27 06:12:11;;;;;;;5.10;4.53;;;17.50;63.40;;;;;;6222508;28;20239;-80
2023/07/27 06:15:15;;;;;;;4.87;4.67;;;17.60;63.50;;;;;;6217900;28;20310;-78
2023/07/27 06:18:18;;;;;;;4.20;4.00;;;17.80;61.90;;;;;;6224205;28;20231;-80
2023/07/27 06:21:21;;;;;;;4.73;4.43;;;18.00;62.20;;;;;;6225063;28;20257;-77
2023/07/27 06:24:26;;;;;;;4.70;4.30;;;17.70;62.00;;;;;;6222345;28;20827;-78
2023/07/27 06:27:29;;;;;;;4.97;4.77;;;17.80;62.20;;;;;;6220323;28;20243;-79
2023/07/27 06:30:35;;;;;;;5.70;5.40;;;17.80;61.70;;;;;;6217797;28;20246;-79
2023/07/27 06:33:38;;;;;;;5.37;5.03;;;17.70;61.50;;;;;;6227897;28;20246;-79
2023/07/27 06:36:42;;;;;;;5.93;5.43;;;17.20;62.50;;;;;;6229085;28;20231;-78
2023/07/27 06:39:46;;;;;;;5.20;5.00;;;17.20;63.00;;;;;;6215077;28;20381;-77
2023/07/27 06:42:49;;;;;;;5.80;5.30;;;17.40;62.90;;;;;;6223610;28;20350;-78
2023/07/27 06:45:52;;;;;;;5.37;5.07;;;17.70;62.50;;;;;;6221579;28;20880;-78
2023/07/27 06:48:55;;;;;;;4.97;4.67;;;17.50;62.70;;;;;;6232934;28;20250;-77
2023/07/27 06:51:59;;;;;;;6.00;4.70;;;17.80;63.00;;;;;;6219054;28;20244;-81
2023/07/27 06:55:03;;;;;;;5.27;4.63;;;18.10;62.50;;;;;;6231687;28;20293;-81
2023/07/27 06:58:06;;;;;;;4.40;4.00;;;18.40;60.80;;;;;;6228485;28;20243;-77
2023/07/27 07:01:10;;;;;;;4.93;4.63;;;18.20;60.80;;;;;;6222424;28;20281;-77
2023/07/27 07:04:13;;;;;;;4.43;4.23;;;18.30;60.30;;;;;;6224701;28;20269;-76
2023/07/27 07:07:17;;;;;;;4.63;4.33;;;18.30;60.50;;;;;;6221611;28;20253;-77
2023/07/27 07:10:21;;;;;;;4.60;4.40;;;18.50;60.10;;;;;;6215400;28;20231;-80
2023/07/27 07:13:24;;;;;;;5.20;4.57;;;18.40;61.40;;;;;;6220770;28;20234;-80
2023/07/27 07:16:27;;;;;;;4.63;4.33;;;18.40;61.00;;;;;;6231475;28;20250;-77
2023/07/27 07:19:32;;;;;;;5.13;4.73;;;18.20;61.20;;;;;;6209292;28;20331;-81
2023/07/27 07:22:35;;;;;;;5.07;4.77;;;18.20;61.10;;;;;;6230617;28;20235;-77
2023/07/27 07:25:40;;;;;;;5.90;5.50;;;18.30;61.20;;;;;;6225844;28;20245;-79
2023/07/27 07:28:43;;;;;;;6.30;5.03;;;18.40;60.80;;;;;;6226488;28;20247;-79
2023/07/27 07:31:46;;;;;;;4.87;4.30;;;18.50;60.90;;;;;;6221025;28;20253;-77
2023/07/27 07:34:51;;;;;;;5.00;4.70;;;18.70;61.10;;;;;;6218818;28;20314;-78
2023/07/27 07:37:54;;;;;;;4.30;4.10;;;18.70;61.00;;;;;;6224400;28;20333;-80
2023/07/27 07:40:59;;;;;;;4.50;4.30;;;19.10;60.70;;;;;;6225424;28;20230;-78
2023/07/27 07:44:03;;;;;;;5.27;4.97;;;19.40;59.40;;;;;;6230732;28;20250;-79
2023/07/27 07:47:06;;;;;;;4.07;3.77;;;19.20;59.70;;;;;;6220423;28;20262;-80
2023/07/27 07:50:10;;;;;;;5.20;4.80;;;19.30;59.40;;;;;;6225607;28;20323;-80
2023/07/27 07:53:13;;;;;;;5.30;4.97;;;19.30;59.80;;;;;;6222010;28;20709;-79
2023/07/27 07:56:27;;;;;;;5.33;5.10;;;19.30;60.50;;;;;;6218221;28;20285;-78
2023/07/27 07:59:30;;;;;;;5.50;5.10;;;19.10;60.30;;;;;;6227252;28;20765;-80
2023/07/27 08:02:33;;;;;;;6.17;5.63;;;19.00;60.20;;;;;;6219740;28;20281;-79
2023/07/27 08:05:36;;;;;;;4.53;4.33;;;19.00;60.00;;;;;;6216999;28;20321;-77
2023/07/27 08:08:41;;;;;;;4.70;4.50;;;18.90;60.90;;;;;;6234468;28;20238;-78
2023/07/27 08:11:48;;;;;;;5.13;4.90;;;18.70;61.00;;;;;;6224727;28;20309;-79
2023/07/27 08:14:51;;;;;;;4.83;4.63;;;18.70;61.30;;;;;;6221204;28;20230;-78
2023/07/27 08:17:54;;;;;;;5.20;4.80;;;18.60;61.10;;;;;;6224179;28;20251;-80
2023/07/27 08:20:58;;;;;;;5.00;4.60;;;18.60;61.30;;;;;;6223951;28;20235;-79
2023/07/27 08:24:02;;;;;;;5.27;4.87;;;18.70;61.10;;;;;;6234025;28;20231;-78
2023/07/27 08:27:08;;;;;;;4.73;4.53;;;18.90;60.90;;;;;;6227264;28;20298;-81
2023/07/27 08:30:12;;;;;;;4.27;4.07;;;18.90;60.10;;;;;;6223049;28;20235;-80
2023/07/27 08:33:15;;;;;;;4.90;4.70;;;19.10;60.00;;;;;;6227086;28;20707;-79
2023/07/27 08:36:18;;;;;;;4.67;4.40;;;19.30;59.90;;;;;;6233135;28;20313;-79
2023/07/27 08:39:22;;;;;;;5.03;4.63;;;19.30;59.60;;;;;;6222098;28;20661;-79
2023/07/27 08:42:27;;;;;;;4.70;4.43;;;19.10;60.00;;;;;;6233901;28;20239;-78
2023/07/27 08:45:32;;;;;;;4.73;4.53;;;18.90;60.70;;;;;;6239016;28;20238;-79
2023/07/27 08:48:36;;;;;;;5.27;4.80;;;18.90;60.30;;;;;;6228922;28;20237;-80
2023/07/27 08:51:43;;;;;;;4.80;4.60;;;18.80;60.20;;;;;;6217892;28;20274;-80
2023/07/27 08:54:46;;;;;;;4.50;4.30;;;18.50;61.10;;;;;;6237227;28;20234;-79
2023/07/27 08:57:51;;;;;;;5.00;4.80;;;18.60;61.50;;;;;;6226376;28;20351;-79
2023/07/27 09:00:54;;;;;;;5.20;4.80;;;18.50;60.90;;;;;;6225288;28;20393;-80
2023/07/27 09:03:58;;;;;;;4.80;4.40;;;18.40;61.30;;;;;;6228044;28;20324;-79
2023/07/27 09:07:07;;;;;;;6.43;5.17;;;18.50;62.00;;;;;;6230234;28;20245;-77
2023/07/27 09:10:11;;;;;;;5.07;4.83;;;18.90;61.10;;;;;;6226401;28;20237;-77
2023/07/27 09:13:15;;;;;;;5.03;4.63;;;19.00;60.80;;;;;;6224463;28;20743;-79
2023/07/27 09:16:22;;;;;;;6.27;5.63;;;19.20;60.40;;;;;;6230452;28;20361;-79
2023/07/27 09:19:26;;;;;;;5.77;5.17;;;19.50;60.00;;;;;;6231195;28;20238;-80
2023/07/27 09:22:29;;;;;;;5.73;5.17;;;19.70;59.60;;;;;;6233335;28;20234;-78
2023/07/27 09:25:33;;;;;;;6.00;5.40;;;19.50;59.20;;;;;;6229929;28;20226;-77
2023/07/27 09:28:38;;;;;;;6.07;5.77;;;19.50;59.50;;;;;;6222584;28;20239;-78
2023/07/27 09:31:45;;;;;;;5.70;5.17;;;19.60;59.60;;;;;;6221567;28;20299;-79
2023/07/27 09:34:56;;;;;;;6.53;5.37;;;19.50;59.60;;;;;;6229398;28;20348;-81
2023/07/27 09:38:00;;;;;;;6.33;5.73;;;19.40;59.20;;;;;;6221931;28;20264;-80
2023/07/27 09:41:08;;;;;;;5.47;4.90;;;19.40;59.30;;;;;;6226582;28;20278;-81
2023/07/27 09:44:15;;;;;;;6.07;5.47;;;19.40;59.90;;;;;;6220367;28;20224;-79
2023/07/27 09:47:20;;;;;;;5.50;5.00;;;19.50;59.10;;;;;;6218993;28;20760;-81
2023/07/27 09:50:26;;;;;;;5.47;5.07;;;19.60;59.20;;;;;;6231480;28;20369;-78
2023/07/27 09:53:30;;;;;;;5.47;5.07;;;19.70;59.20;;;;;;6220592;28;20284;-81
2023/07/27 09:56:34;;;;;;;5.87;5.27;;;19.70;58.80;;;;;;6226934;28;20280;-81
2023/07/27 09:59:39;;;;;;;5.07;4.60;;;19.80;59.10;;;;;;6223662;28;20242;-78
2023/07/27 10:02:42;;;;;;;5.10;4.70;;;19.90;59.00;;;;;;6236801;28;20245;-78
2023/07/27 10:05:45;;;;;;;5.33;4.80;;;19.90;59.40;;;;;;6223515;28;20242;-79
2023/07/27 10:08:50;;;;;;;5.63;5.20;;;19.90;58.70;;;;;;6215395;28;20712;-80
2023/07/27 10:11:55;;;;;;;5.57;5.00;;;19.60;59.70;;;;;;6220620;28;20907;-78
2023/07/27 10:15:21;;;;;;;5.00;4.70;;;19.20;61.20;;;;;;6223909;28;20226;-80
2023/07/27 10:18:26;;;;;;;5.00;4.60;;;19.40;60.70;;;;;;6209871;28;20251;-77
2023/07/27 10:21:29;;;;;;;4.80;4.40;;;19.60;60.60;;;;;;6219062;28;20269;-76
2023/07/27 10:24:47;;;;;;;4.17;3.97;;;19.90;59.80;;;;;;6235701;28;20238;-80
2023/07/27 10:27:55;;;;;;;4.33;4.10;;;20.00;60.00;;;;;;6232567;28;20238;-78
2023/07/27 10:31:20;;;;;;;4.53;4.23;;;20.30;59.80;;;;;;6221258;28;20639;-79
2023/07/27 10:34:27;;;;;;;5.50;5.13;;;20.60;59.00;;;;;;6223052;28;20294;-77
2023/07/27 10:37:52;;;;;;;5.30;4.90;;;20.60;59.00;;;;;;6219676;28;20277;-82
2023/07/27 10:40:55;;;;;;;4.23;3.93;;;20.80;58.90;;;;;;6220075;28;20878;-79
2023/07/27 10:44:18;;;;;;;4.00;3.90;;;20.80;58.30;;;;;;6217737;28;20238;-77
2023/07/27 10:47:25;;;;;;;4.80;4.60;;;20.60;58.60;;;;;;6213719;28;20243;-78
2023/07/27 10:50:28;;;;;;;4.90;4.60;;;20.70;58.80;;;;;;6230120;28;20250;-78
2023/07/27 10:53:36;;;;;;;4.40;4.20;;;20.50;58.70;;;;;;6223280;28;20231;-77
2023/07/27 10:56:41;;;;;;;4.77;4.40;;;20.30;58.70;;;;;;6219865;28;20235;-77
2023/07/27 10:59:46;;;;;;;4.13;3.97;;;20.30;59.20;;;;;;6225155;28;20243;-77
2023/07/27 11:02:50;;;;;;;4.93;4.63;;;20.20;58.90;;;;;;6231959;28;20756;-79
2023/07/27 11:06:04;;;;;;;4.57;4.27;;;20.00;60.00;;;;;;6220444;28;20258;-80
2023/07/27 11:09:11;;;;;;;4.97;4.77;;;20.10;59.70;;;;;;6219827;28;20247;-77
2023/07/27 11:12:14;;;;;;;4.30;4.10;;;20.10;59.40;;;;;;6223684;28;20227;-77
2023/07/27 11:15:19;;;;;;;4.60;4.40;;;20.10;59.20;;;;;;6226008;28;20227;-78
2023/07/27 11:18:23;;;;;;;4.50;4.30;;;20.00;59.70;;;;;;6221922;28;20396;-78
2023/07/27 11:21:26;;;;;;;4.60;4.30;;;19.70;60.40;;;;;;6225820;28;20230;-80
2023/07/27 11:24:30;;;;;;;4.50;4.40;;;19.70;60.60;;;;;;6221302;28;20226;-80
2023/07/27 11:27:34;;;;;;;4.73;4.53;;;19.60;60.90;;;;;;6219843;28;20227;-78
2023/07/27 11:30:37;;;;;;;4.90;4.60;;;19.70;60.70;;;;;;6224197;28;20321;-77
2023/07/27 11:33:42;;;;;;;4.67;4.50;;;19.50;61.70;;;;;;6228540;28;20238;-78
2023/07/27 11:36:45;;;;;;;4.80;4.30;;;19.50;62.60;;;;;;6228782;28;20316;-78
2023/07/27 11:39:48;;;;;;;4.50;4.37;;;19.50;63.00;;;;;;6227199;28;20246;-78
2023/07/27 11:42:51;;;;;;;4.77;4.47;;;19.50;63.20;;;;;;6228334;28;20241;-77
2023/07/27 11:45:57;;;;;;;4.00;3.80;;;19.70;63.10;;;;;;6214565;28;20254;-76
2023/07/27 11:49:03;;;;;;;4.90;4.70;;;19.80;63.20;;;;;;6213956;28;20239;-78
2023/07/27 11:52:10;;;;;;;4.93;4.70;;;19.90;63.50;;;;;;6216853;28;20238;-81
2023/07/27 11:55:16;;;;;;;5.43;5.03;;;19.90;63.70;;;;;;6226669;28;20231;-78
2023/07/27 11:58:19;;;;;;;5.70;5.30;;;20.00;63.90;;;;;;6222473;28;20234;-82
2023/07/27 12:01:24;;;;;;;4.97;4.77;;;19.90;64.50;;;;;;6229470;28;20822;-81
2023/07/27 12:04:28;;;;;;;5.10;4.70;;;19.90;64.50;;;;;;6233576;28;20768;-79
2023/07/27 12:07:33;;;;;;;5.07;4.73;;;20.10;64.10;;;;;;6222170;28;20273;-79
2023/07/27 12:10:59;;;;;;;4.83;4.63;;;20.20;63.70;;;;;;6222683;28;20666;-81
2023/07/27 12:14:07;;;;;;;5.00;4.70;;;20.30;64.00;;;;;;6226644;28;20239;-79
2023/07/27 12:17:11;;;;;;;5.13;4.80;;;20.20;64.00;;;;;;6228101;28;20246;-80
2023/07/27 12:20:18;;;;;;;5.70;5.40;;;20.00;63.60;;;;;;6223037;28;20372;-79
2023/07/27 12:23:41;;;;;;;5.50;5.10;;;20.00;64.70;;;;;;6229779;28;20313;-80
2023/07/27 12:26:45;;;;;;;5.87;5.47;;;19.90;65.50;;;;;;6227330;28;20228;-78
2023/07/27 12:29:51;;;;;;;5.40;5.10;;;19.90;65.70;;;;;;6220591;28;20793;-78
2023/07/27 12:32:55;;;;;;;5.30;4.93;;;19.80;65.70;;;;;;6220811;28;20243;-78
2023/07/27 12:35:59;;;;;;;6.77;6.37;;;19.90;65.00;;;;;;6229990;28;20306;-81
2023/07/27 12:39:02;;;;;;;5.30;5.10;;;19.90;66.00;;;;;;6226630;28;20246;-81
2023/07/27 12:42:06;;;;;;;5.57;5.23;;;19.90;65.70;;;;;;6225473;28;20235;-78
2023/07/27 12:45:12;;;;;;;8.00;7.33;;;19.70;64.70;;;;;;6213360;28;20239;-79
2023/07/27 12:48:15;;;;;;;5.47;5.17;;;19.50;65.90;;;;;;6215952;28;20238;-78
2023/07/27 12:51:20;;;;;;;5.03;4.73;;;19.50;65.60;;;;;;6221929;28;20313;-79
2023/07/27 12:54:23;;;;;;;5.60;5.20;;;19.60;65.60;;;;;;6220878;28;20700;-78
2023/07/27 12:57:26;;;;;;;6.20;5.67;;;19.80;64.10;;;;;;6228971;28;20227;-78
2023/07/27 13:00:29;;;;;;;5.87;5.37;;;19.80;64.00;;;;;;6233126;28;20316;-78
2023/07/27 13:03:32;;;;;;;5.90;5.50;;;19.90;64.70;;;;;;6246751;28;20234;-77
2023/07/27 13:06:36;;;;;;;5.00;4.80;;;20.00;65.00;;;;;;6232139;28;20234;-79
2023/07/27 13:09:39;;;;;;;5.83;5.33;;;20.00;65.10;;;;;;6223940;28;20238;-80
2023/07/27 13:12:42;;;;;;;5.37;5.17;;;20.10;64.70;;;;;;6230761;28;20238;-82
2023/07/27 13:15:46;;;;;;;5.80;5.50;;;20.30;63.30;;;;;;6229183;28;20326;-78
2023/07/27 13:18:49;;;;;;;5.43;5.23;;;20.10;63.50;;;;;;6227490;28;20377;-81
2023/07/27 13:21:53;;;;;;;4.97;4.57;;;20.20;63.20;;;;;;6230637;28;20292;-79
2023/07/27 13:24:56;;;;;;;5.47;4.97;;;20.00;64.10;;;;;;6234352;28;20312;-79
2023/07/27 13:27:59;;;;;;;7.10;6.00;;;20.00;63.90;;;;;;6220228;28;20312;-80
2023/07/27 13:31:02;;;;;;;4.63;4.27;;;19.90;64.00;;;;;;6227535;28;20247;-82
2023/07/27 13:34:10;;;;;;;5.77;5.43;;;19.50;63.20;;;;;;6220387;28;20624;-79
2023/07/27 13:37:15;;;;;;;5.17;4.77;;;19.20;63.40;;;;;;6229813;28;20316;-78
2023/07/27 13:40:18;;;;;;;5.47;4.90;;;19.20;63.90;;;;;;6224488;28;20238;-79
2023/07/27 13:43:21;;;;;;;5.37;4.97;;;19.00;65.20;;;;;;6232919;28;20769;-78
2023/07/27 13:46:24;;;;;;;6.43;6.03;;;19.00;65.90;;;;;;6228784;28;20243;-79
2023/07/27 13:49:28;;;;;;;6.90;5.57;;;18.90;66.60;;;;;;6223674;28;20239;-80
2023/07/27 13:52:32;;;;;;;5.80;5.40;;;18.90;66.80;;;;;;6227920;28;20310;-79
2023/07/27 13:55:35;;;;;;;5.77;5.20;;;18.80;65.90;;;;;;6218080;28;20231;-79
2023/07/27 13:58:39;;;;;;;5.13;4.83;;;18.80;66.30;;;;;;6223868;28;20235;-80
2023/07/27 14:01:42;;;;;;;5.53;5.13;;;18.80;65.40;;;;;;6218570;28;20235;-79
2023/07/27 14:04:45;;;;;;;6.10;5.70;;;18.80;65.80;;;;;;6226648;28;20731;-77
2023/07/27 14:07:50;;;;;;;6.80;6.10;;;19.10;65.20;;;;;;6232331;28;20246;-76
2023/07/27 14:10:54;;;;;;;5.17;4.90;;;19.30;65.10;;;;;;6225668;28;20245;-77
2023/07/27 14:13:57;;;;;;;4.90;4.70;;;19.30;63.90;;;;;;6227975;28;20748;-77
2023/07/27 14:17:00;;;;;;;4.90;4.67;;;19.20;63.80;;;;;;6231335;28;20322;-80
2023/07/27 14:20:03;;;;;;;4.40;4.20;;;19.30;63.80;;;;;;6228012;28;20227;-80
2023/07/27 14:23:08;;;;;;;4.80;4.50;;;19.20;64.40;;;;;;6229911;28;20731;-77
2023/07/27 14:26:12;;;;;;;7.13;4.70;;;19.30;63.60;;;;;;6233477;28;20265;-78
2023/07/27 14:29:15;;;;;;;4.90;4.53;;;19.30;64.00;;;;;;6228016;28;20235;-77
2023/07/27 14:32:18;;;;;;;5.03;4.70;;;19.50;63.50;;;;;;6230759;28;20722;-79
2023/07/27 14:35:21;;;;;;;5.17;4.87;;;19.50;62.40;;;;;;6220246;28;20271;-80
2023/07/27 14:38:29;;;;;;;4.30;4.10;;;19.40;62.40;;;;;;6227604;28;20250;-76
2023/07/27 14:41:33;;;;;;;5.97;4.47;;;19.20;62.90;;;;;;6214518;28;20266;-77
2023/07/27 14:44:36;;;;;;;4.67;4.47;;;19.00;63.90;;;;;;6223232;28;20370;-77
2023/07/27 14:47:39;;;;;;;4.40;4.20;;;18.90;65.00;;;;;;6233877;28;20254;-81
2023/07/27 14:50:44;;;;;;;4.73;4.47;;;18.60;65.90;;;;;;6230610;28;20234;-77
2023/07/27 14:53:49;;;;;;;3.77;3.67;;;18.50;66.30;;;;;;6224263;28;20321;-77
2023/07/27 14:56:52;;;;;;;3.97;3.87;;;18.70;65.20;;;;;;6221512;28;20235;-79
2023/07/27 14:59:56;;;;;;;6.73;6.17;;;18.90;65.60;;;;;;6229189;28;20673;-77
2023/07/27 15:03:11;;;;;;;4.70;4.40;;;19.00;65.80;;;;;;6225646;28;20254;-80
2023/07/27 15:06:24;;;;;;;4.57;4.27;;;19.10;65.20;;;;;;6208589;28;20314;-78
2023/07/27 15:09:29;;;;;;;4.80;4.33;;;19.30;65.50;;;;;;6198539;28;20239;-81
2023/07/27 15:12:32;;;;;;;3.90;3.80;;;19.40;64.20;;;;;;6229633;28;20255;-78
2023/07/27 15:15:36;;;;;;;4.23;4.03;;;19.50;64.50;;;;;;6218982;28;20239;-78
2023/07/27 15:18:39;;;;;;;4.60;4.00;;;19.30;64.80;;;;;;6222279;28;20231;-79
2023/07/27 15:21:42;;;;;;;4.30;4.17;;;19.20;65.60;;;;;;6221355;28;20235;-79
2023/07/27 15:24:47;;;;;;;4.07;3.87;;;19.40;65.60;;;;;;6224151;28;20243;-79
2023/07/27 15:27:50;;;;;;;4.80;4.40;;;19.10;64.90;;;;;;6217385;28;20325;-78
2023/07/27 15:30:55;;;;;;;4.70;4.40;;;18.90;65.80;;;;;;6227518;28;20719;-79
2023/07/27 15:33:58;;;;;;;4.13;4.03;;;18.90;64.80;;;;;;6228160;28;20235;-79
2023/07/27 15:37:01;;;;;;;4.10;3.80;;;18.90;65.10;;;;;;6222809;28;20235;-80
2023/07/27 15:40:07;;;;;;;4.10;3.90;;;18.90;64.90;;;;;;6232815;28;20365;-80
2023/07/27 15:43:10;;;;;;;4.37;4.07;;;18.70;65.20;;;;;;6223383;28;20647;-79
2023/07/27 15:46:13;;;;;;;5.77;5.33;;;18.60;65.70;;;;;;6221954;28;20249;-80
2023/07/27 15:49:17;;;;;;;4.70;4.30;;;18.50;65.80;;;;;;6224991;28;20255;-80
2023/07/27 15:52:20;;;;;;;4.37;4.17;;;18.40;66.50;;;;;;6226040;28;20803;-76
2023/07/27 15:55:26;;;;;;;5.37;4.83;;;18.40;66.60;;;;;;6223376;28;20269;-79
2023/07/27 15:58:29;;;;;;;5.33;4.97;;;18.40;66.90;;;;;;6226407;28;20251;-79
2023/07/27 16:01:32;;;;;;;3.93;3.67;;;18.30;67.00;;;;;;6224720;28;20241;-77
2023/07/27 16:04:35;;;;;;;7.13;6.50;;;18.20;67.50;;;;;;6232362;28;20239;-79